sensor_id;sensor_type;location;lat;lon;timestamp;P1;durP1;ratioP1;P2;durP2;ratioP2
7460;SDS011;6757;52.258;12.840;2023-08-17T00:00:57;7.15;;;2.42;;
7460;SDS011;6757;52.258;12.840;2023-08-17T00:03:23;4.28;;;2.40;;
7460;SDS011;6757;52.258;12.840;2023-08-17T00:05:50;5.07;;;2.55;;
7460;SDS011;6757;52.258;12.840;2023-08-17T00:08:17;6.60;;;2.40;;
7460;SDS011;6757;52.258;12.840;2023-08-17T00:10:44;5.38;;;2.67;;
7460;SDS011;6757;52.258;12.840;2023-08-17T00:13:12;4.63;;;2.30;;
7460;SDS011;6757;52.258;12.840;2023-08-17T00:15:41;3.97;;;2.38;;
7460;SDS011;6757;52.258;12.840;2023-08-17T00:18:10;4.45;;;2.15;;
7460;SDS011;6757;52.258;12.840;2023-08-17T00:20:37;4.15;;;2.28;;
7460;SDS011;6757;52.258;12.840;2023-08-17T00:23:04;5.20;;;2.30;;
7460;SDS011;6757;52.258;12.840;2023-08-17T00:25:31;5.05;;;2.17;;
7460;SDS011;6757;52.258;12.840;2023-08-17T00:27:57;4.95;;;2.25;;
7460;SDS011;6757;52.258;12.840;2023-08-17T00:30:24;5.85;;;2.60;;
7460;SDS011;6757;52.258;12.840;2023-08-17T00:32:53;3.95;;;2.22;;
7460;SDS011;6757;52.258;12.840;2023-08-17T00:35:19;7.28;;;2.60;;
7460;SDS011;6757;52.258;12.840;2023-08-17T00:37:46;2.80;;;2.20;;
7460;SDS011;6757;52.258;12.840;2023-08-17T00:40:13;5.78;;;2.20;;
7460;SDS011;6757;52.258;12.840;2023-08-17T00:42:40;4.38;;;2.30;;
7460;SDS011;6757;52.258;12.840;2023-08-17T00:45:07;3.67;;;2.10;;
7460;SDS011;6757;52.258;12.840;2023-08-17T00:47:35;6.75;;;2.30;;
7460;SDS011;6757;52.258;12.840;2023-08-17T00:50:04;5.00;;;2.35;;
7460;SDS011;6757;52.258;12.840;2023-08-17T00:52:33;3.95;;;2.20;;
7460;SDS011;6757;52.258;12.840;2023-08-17T00:55:00;5.60;;;2.50;;
7460;SDS011;6757;52.258;12.840;2023-08-17T00:57:30;5.35;;;2.40;;
7460;SDS011;6757;52.258;12.840;2023-08-17T00:59:58;4.28;;;2.38;;
7460;SDS011;6757;52.258;12.840;2023-08-17T01:02:25;5.13;;;2.50;;
7460;SDS011;6757;52.258;12.840;2023-08-17T01:04:53;5.22;;;2.38;;
7460;SDS011;6757;52.258;12.840;2023-08-17T01:07:21;4.20;;;2.17;;
7460;SDS011;6757;52.258;12.840;2023-08-17T01:09:48;4.20;;;2.33;;
7460;SDS011;6757;52.258;12.840;2023-08-17T01:12:17;4.38;;;2.38;;
7460;SDS011;6757;52.258;12.840;2023-08-17T01:17:26;4.35;;;2.20;;
7460;SDS011;6757;52.258;12.840;2023-08-17T01:19:59;5.63;;;2.25;;
7460;SDS011;6757;52.258;12.840;2023-08-17T01:22:31;6.68;;;2.53;;
7460;SDS011;6757;52.258;12.840;2023-08-17T01:25:02;4.93;;;2.38;;
7460;SDS011;6757;52.258;12.840;2023-08-17T01:27:33;3.75;;;2.00;;
7460;SDS011;6757;52.258;12.840;2023-08-17T01:30:05;3.55;;;2.47;;
7460;SDS011;6757;52.258;12.840;2023-08-17T01:32:36;5.25;;;2.67;;
7460;SDS011;6757;52.258;12.840;2023-08-17T01:35:09;3.75;;;2.15;;
7460;SDS011;6757;52.258;12.840;2023-08-17T01:37:45;6.15;;;2.63;;
7460;SDS011;6757;52.258;12.840;2023-08-17T01:40:13;5.15;;;2.80;;
7460;SDS011;6757;52.258;12.840;2023-08-17T01:42:41;5.75;;;2.53;;
7460;SDS011;6757;52.258;12.840;2023-08-17T01:45:09;3.97;;;2.20;;
7460;SDS011;6757;52.258;12.840;2023-08-17T01:47:37;5.07;;;2.40;;
7460;SDS011;6757;52.258;12.840;2023-08-17T01:50:04;5.65;;;2.20;;
7460;SDS011;6757;52.258;12.840;2023-08-17T01:52:32;5.63;;;2.35;;
7460;SDS011;6757;52.258;12.840;2023-08-17T01:55:00;4.75;;;2.35;;
7460;SDS011;6757;52.258;12.840;2023-08-17T01:57:28;4.50;;;2.65;;
7460;SDS011;6757;52.258;12.840;2023-08-17T01:59:55;5.15;;;2.40;;
7460;SDS011;6757;52.258;12.840;2023-08-17T02:02:22;4.72;;;2.28;;
7460;SDS011;6757;52.258;12.840;2023-08-17T02:04:49;4.85;;;2.42;;
7460;SDS011;6757;52.258;12.840;2023-08-17T02:07:15;4.90;;;2.45;;
7460;SDS011;6757;52.258;12.840;2023-08-17T02:09:42;6.35;;;2.53;;
7460;SDS011;6757;52.258;12.840;2023-08-17T02:12:09;4.47;;;2.13;;
7460;SDS011;6757;52.258;12.840;2023-08-17T02:14:38;4.07;;;2.25;;
7460;SDS011;6757;52.258;12.840;2023-08-17T02:17:04;3.10;;;2.20;;
7460;SDS011;6757;52.258;12.840;2023-08-17T02:19:31;4.57;;;2.45;;
7460;SDS011;6757;52.258;12.840;2023-08-17T02:21:58;5.05;;;2.55;;
7460;SDS011;6757;52.258;12.840;2023-08-17T02:24:25;5.65;;;2.60;;
7460;SDS011;6757;52.258;12.840;2023-08-17T02:26:52;4.53;;;2.50;;
7460;SDS011;6757;52.258;12.840;2023-08-17T02:29:19;6.28;;;2.55;;
7460;SDS011;6757;52.258;12.840;2023-08-17T02:31:47;6.13;;;2.53;;
7460;SDS011;6757;52.258;12.840;2023-08-17T02:34:14;4.63;;;2.53;;
7460;SDS011;6757;52.258;12.840;2023-08-17T02:36:41;5.75;;;2.30;;
7460;SDS011;6757;52.258;12.840;2023-08-17T02:39:08;4.57;;;2.38;;
7460;SDS011;6757;52.258;12.840;2023-08-17T02:41:35;5.72;;;2.95;;
7460;SDS011;6757;52.258;12.840;2023-08-17T02:44:02;5.63;;;2.75;;
7460;SDS011;6757;52.258;12.840;2023-08-17T02:46:29;5.13;;;2.33;;
7460;SDS011;6757;52.258;12.840;2023-08-17T02:48:58;4.25;;;2.28;;
7460;SDS011;6757;52.258;12.840;2023-08-17T02:51:24;4.43;;;2.53;;
7460;SDS011;6757;52.258;12.840;2023-08-17T02:53:51;4.75;;;2.53;;
7460;SDS011;6757;52.258;12.840;2023-08-17T02:56:18;4.15;;;2.22;;
7460;SDS011;6757;52.258;12.840;2023-08-17T02:58:45;4.25;;;2.38;;
7460;SDS011;6757;52.258;12.840;2023-08-17T03:01:12;5.00;;;2.70;;
7460;SDS011;6757;52.258;12.840;2023-08-17T03:03:39;4.65;;;2.30;;
7460;SDS011;6757;52.258;12.840;2023-08-17T03:06:08;4.72;;;2.30;;
7460;SDS011;6757;52.258;12.840;2023-08-17T03:08:35;6.75;;;2.63;;
7460;SDS011;6757;52.258;12.840;2023-08-17T03:11:01;3.75;;;2.30;;
7460;SDS011;6757;52.258;12.840;2023-08-17T03:13:28;4.45;;;2.33;;
7460;SDS011;6757;52.258;12.840;2023-08-17T03:15:55;5.22;;;2.38;;
7460;SDS011;6757;52.258;12.840;2023-08-17T03:18:22;7.18;;;2.67;;
7460;SDS011;6757;52.258;12.840;2023-08-17T03:20:49;4.50;;;2.30;;
7460;SDS011;6757;52.258;12.840;2023-08-17T03:23:17;4.88;;;2.22;;
7460;SDS011;6757;52.258;12.840;2023-08-17T03:25:44;4.60;;;2.38;;
7460;SDS011;6757;52.258;12.840;2023-08-17T03:28:11;4.30;;;2.30;;
7460;SDS011;6757;52.258;12.840;2023-08-17T03:30:38;3.75;;;2.40;;
7460;SDS011;6757;52.258;12.840;2023-08-17T03:33:05;6.07;;;2.22;;
7460;SDS011;6757;52.258;12.840;2023-08-17T03:35:33;4.30;;;2.20;;
7460;SDS011;6757;52.258;12.840;2023-08-17T03:38:00;5.10;;;2.60;;
7460;SDS011;6757;52.258;12.840;2023-08-17T03:40:28;5.05;;;2.35;;
7460;SDS011;6757;52.258;12.840;2023-08-17T03:42:55;5.15;;;2.15;;
7460;SDS011;6757;52.258;12.840;2023-08-17T03:45:22;4.38;;;2.30;;
7460;SDS011;6757;52.258;12.840;2023-08-17T03:47:48;3.38;;;2.03;;
7460;SDS011;6757;52.258;12.840;2023-08-17T03:50:15;4.55;;;2.47;;
7460;SDS011;6757;52.258;12.840;2023-08-17T03:52:42;3.75;;;2.15;;
7460;SDS011;6757;52.258;12.840;2023-08-17T03:55:09;3.22;;;2.05;;
7460;SDS011;6757;52.258;12.840;2023-08-17T03:57:38;4.63;;;2.25;;
7460;SDS011;6757;52.258;12.840;2023-08-17T04:00:05;5.07;;;2.42;;
7460;SDS011;6757;52.258;12.840;2023-08-17T04:02:35;5.03;;;2.38;;
7460;SDS011;6757;52.258;12.840;2023-08-17T04:05:02;6.50;;;2.30;;
7460;SDS011;6757;52.258;12.840;2023-08-17T04:07:29;4.63;;;2.30;;
7460;SDS011;6757;52.258;12.840;2023-08-17T04:09:56;3.28;;;2.17;;
7460;SDS011;6757;52.258;12.840;2023-08-17T04:12:23;5.47;;;2.20;;
7460;SDS011;6757;52.258;12.840;2023-08-17T04:14:52;2.85;;;2.25;;
7460;SDS011;6757;52.258;12.840;2023-08-17T04:17:19;4.80;;;2.35;;
7460;SDS011;6757;52.258;12.840;2023-08-17T04:19:46;6.75;;;2.60;;
7460;SDS011;6757;52.258;12.840;2023-08-17T04:22:13;3.25;;;1.98;;
7460;SDS011;6757;52.258;12.840;2023-08-17T04:24:40;5.30;;;2.58;;
7460;SDS011;6757;52.258;12.840;2023-08-17T04:27:07;3.95;;;2.20;;
7460;SDS011;6757;52.258;12.840;2023-08-17T04:29:34;4.93;;;2.25;;
7460;SDS011;6757;52.258;12.840;2023-08-17T04:32:02;4.78;;;2.45;;
7460;SDS011;6757;52.258;12.840;2023-08-17T04:34:30;3.90;;;2.03;;
7460;SDS011;6757;52.258;12.840;2023-08-17T04:36:57;4.97;;;2.40;;
7460;SDS011;6757;52.258;12.840;2023-08-17T04:39:24;4.20;;;2.30;;
7460;SDS011;6757;52.258;12.840;2023-08-17T04:41:51;3.28;;;2.17;;
7460;SDS011;6757;52.258;12.840;2023-08-17T04:44:18;4.05;;;2.33;;
7460;SDS011;6757;52.258;12.840;2023-08-17T04:46:44;4.82;;;2.40;;
7460;SDS011;6757;52.258;12.840;2023-08-17T04:49:13;4.30;;;2.38;;
7460;SDS011;6757;52.258;12.840;2023-08-17T04:51:39;8.48;;;2.65;;
7460;SDS011;6757;52.258;12.840;2023-08-17T04:54:06;5.47;;;2.60;;
7460;SDS011;6757;52.258;12.840;2023-08-17T04:56:33;7.70;;;2.67;;
7460;SDS011;6757;52.258;12.840;2023-08-17T04:59:00;5.38;;;2.88;;
7460;SDS011;6757;52.258;12.840;2023-08-17T05:01:27;5.65;;;3.00;;
7460;SDS011;6757;52.258;12.840;2023-08-17T05:03:54;7.03;;;2.58;;
7460;SDS011;6757;52.258;12.840;2023-08-17T05:06:22;3.90;;;2.30;;
7460;SDS011;6757;52.258;12.840;2023-08-17T05:08:49;5.40;;;2.58;;
7460;SDS011;6757;52.258;12.840;2023-08-17T05:11:16;5.65;;;2.70;;
7460;SDS011;6757;52.258;12.840;2023-08-17T05:13:43;7.78;;;3.40;;
7460;SDS011;6757;52.258;12.840;2023-08-17T05:16:10;7.28;;;2.65;;
7460;SDS011;6757;52.258;12.840;2023-08-17T05:18:37;6.10;;;2.60;;
7460;SDS011;6757;52.258;12.840;2023-08-17T05:21:04;5.47;;;2.63;;
7460;SDS011;6757;52.258;12.840;2023-08-17T05:23:32;6.18;;;2.53;;
7460;SDS011;6757;52.258;12.840;2023-08-17T05:25:59;3.05;;;2.13;;
7460;SDS011;6757;52.258;12.840;2023-08-17T05:28:26;5.72;;;2.65;;
7460;SDS011;6757;52.258;12.840;2023-08-17T05:30:53;5.30;;;2.60;;
7460;SDS011;6757;52.258;12.840;2023-08-17T05:33:20;5.88;;;2.55;;
7460;SDS011;6757;52.258;12.840;2023-08-17T05:35:52;6.47;;;2.50;;
7460;SDS011;6757;52.258;12.840;2023-08-17T05:38:20;5.13;;;2.30;;
7460;SDS011;6757;52.258;12.840;2023-08-17T05:40:48;5.70;;;2.42;;
7460;SDS011;6757;52.258;12.840;2023-08-17T05:43:21;6.07;;;2.45;;
7460;SDS011;6757;52.258;12.840;2023-08-17T05:45:48;4.05;;;2.40;;
7460;SDS011;6757;52.258;12.840;2023-08-17T05:48:16;5.20;;;2.38;;
7460;SDS011;6757;52.258;12.840;2023-08-17T05:50:45;4.10;;;2.05;;
7460;SDS011;6757;52.258;12.840;2023-08-17T05:53:13;4.85;;;2.33;;
7460;SDS011;6757;52.258;12.840;2023-08-17T05:55:40;4.15;;;2.38;;
7460;SDS011;6757;52.258;12.840;2023-08-17T05:58:08;5.32;;;2.22;;
7460;SDS011;6757;52.258;12.840;2023-08-17T06:00:35;2.30;;;1.92;;
7460;SDS011;6757;52.258;12.840;2023-08-17T06:03:02;3.67;;;2.20;;
7460;SDS011;6757;52.258;12.840;2023-08-17T06:05:30;4.05;;;2.50;;
7460;SDS011;6757;52.258;12.840;2023-08-17T06:07:57;7.30;;;2.60;;
7460;SDS011;6757;52.258;12.840;2023-08-17T06:10:25;4.30;;;2.05;;
7460;SDS011;6757;52.258;12.840;2023-08-17T06:12:52;4.10;;;2.17;;
7460;SDS011;6757;52.258;12.840;2023-08-17T06:15:20;3.85;;;1.92;;
7460;SDS011;6757;52.258;12.840;2023-08-17T06:17:47;3.35;;;2.25;;
7460;SDS011;6757;52.258;12.840;2023-08-17T06:20:15;3.17;;;2.17;;
7460;SDS011;6757;52.258;12.840;2023-08-17T06:22:42;3.55;;;1.83;;
7460;SDS011;6757;52.258;12.840;2023-08-17T06:25:09;2.75;;;1.77;;
7460;SDS011;6757;52.258;12.840;2023-08-17T06:27:36;4.40;;;2.00;;
7460;SDS011;6757;52.258;12.840;2023-08-17T06:30:04;4.32;;;2.00;;
7460;SDS011;6757;52.258;12.840;2023-08-17T06:32:34;3.97;;;2.00;;
7460;SDS011;6757;52.258;12.840;2023-08-17T06:35:01;3.63;;;2.10;;
7460;SDS011;6757;52.258;12.840;2023-08-17T06:37:28;3.70;;;2.03;;
7460;SDS011;6757;52.258;12.840;2023-08-17T06:39:55;2.25;;;1.80;;
7460;SDS011;6757;52.258;12.840;2023-08-17T06:42:21;3.83;;;1.85;;
7460;SDS011;6757;52.258;12.840;2023-08-17T06:44:48;4.15;;;1.83;;
7460;SDS011;6757;52.258;12.840;2023-08-17T06:47:15;3.80;;;2.15;;
7460;SDS011;6757;52.258;12.840;2023-08-17T06:49:43;4.45;;;2.45;;
7460;SDS011;6757;52.258;12.840;2023-08-17T06:52:10;3.92;;;2.33;;
7460;SDS011;6757;52.258;12.840;2023-08-17T06:54:37;8.20;;;2.78;;
7460;SDS011;6757;52.258;12.840;2023-08-17T06:57:05;4.00;;;2.35;;
7460;SDS011;6757;52.258;12.840;2023-08-17T06:59:32;5.25;;;2.08;;
7460;SDS011;6757;52.258;12.840;2023-08-17T07:01:59;6.60;;;2.60;;
7460;SDS011;6757;52.258;12.840;2023-08-17T07:04:26;5.65;;;2.45;;
7460;SDS011;6757;52.258;12.840;2023-08-17T07:06:54;6.03;;;2.40;;
7460;SDS011;6757;52.258;12.840;2023-08-17T07:09:21;5.45;;;2.45;;
7460;SDS011;6757;52.258;12.840;2023-08-17T07:11:48;4.35;;;2.42;;
7460;SDS011;6757;52.258;12.840;2023-08-17T07:14:16;3.80;;;2.35;;
7460;SDS011;6757;52.258;12.840;2023-08-17T07:16:43;5.47;;;2.53;;
7460;SDS011;6757;52.258;12.840;2023-08-17T07:19:09;4.28;;;2.20;;
7460;SDS011;6757;52.258;12.840;2023-08-17T07:21:38;4.72;;;2.33;;
7460;SDS011;6757;52.258;12.840;2023-08-17T07:24:12;4.45;;;2.50;;
7460;SDS011;6757;52.258;12.840;2023-08-17T07:26:41;6.25;;;2.55;;
7460;SDS011;6757;52.258;12.840;2023-08-17T07:29:08;6.60;;;2.30;;
7460;SDS011;6757;52.258;12.840;2023-08-17T07:31:36;5.95;;;2.60;;
7460;SDS011;6757;52.258;12.840;2023-08-17T07:34:03;4.53;;;2.42;;
7460;SDS011;6757;52.258;12.840;2023-08-17T07:36:30;4.50;;;2.28;;
7460;SDS011;6757;52.258;12.840;2023-08-17T07:38:57;4.75;;;2.50;;
7460;SDS011;6757;52.258;12.840;2023-08-17T07:41:26;6.25;;;2.80;;
7460;SDS011;6757;52.258;12.840;2023-08-17T07:43:53;6.53;;;2.70;;
7460;SDS011;6757;52.258;12.840;2023-08-17T07:46:20;5.00;;;2.70;;
7460;SDS011;6757;52.258;12.840;2023-08-17T07:48:46;8.82;;;3.03;;
7460;SDS011;6757;52.258;12.840;2023-08-17T07:51:14;5.63;;;2.78;;
7460;SDS011;6757;52.258;12.840;2023-08-17T07:53:41;4.78;;;2.50;;
7460;SDS011;6757;52.258;12.840;2023-08-17T07:56:08;6.70;;;2.95;;
7460;SDS011;6757;52.258;12.840;2023-08-17T07:58:36;7.72;;;2.92;;
7460;SDS011;6757;52.258;12.840;2023-08-17T08:01:03;6.35;;;2.80;;
7460;SDS011;6757;52.258;12.840;2023-08-17T08:03:30;5.82;;;2.63;;
7460;SDS011;6757;52.258;12.840;2023-08-17T08:05:58;4.97;;;2.75;;
7460;SDS011;6757;52.258;12.840;2023-08-17T08:08:25;6.47;;;2.95;;
7460;SDS011;6757;52.258;12.840;2023-08-17T08:10:52;6.18;;;3.08;;
7460;SDS011;6757;52.258;12.840;2023-08-17T08:13:20;7.43;;;3.15;;
7460;SDS011;6757;52.258;12.840;2023-08-17T08:15:48;6.05;;;3.15;;
7460;SDS011;6757;52.258;12.840;2023-08-17T08:18:15;7.32;;;3.10;;
7460;SDS011;6757;52.258;12.840;2023-08-17T08:20:42;6.68;;;3.28;;
7460;SDS011;6757;52.258;12.840;2023-08-17T08:23:09;6.20;;;2.85;;
7460;SDS011;6757;52.258;12.840;2023-08-17T08:25:36;7.55;;;3.22;;
7460;SDS011;6757;52.258;12.840;2023-08-17T08:28:03;8.52;;;2.90;;
7460;SDS011;6757;52.258;12.840;2023-08-17T08:30:30;5.55;;;2.97;;
7460;SDS011;6757;52.258;12.840;2023-08-17T08:32:59;5.95;;;3.00;;
7460;SDS011;6757;52.258;12.840;2023-08-17T08:35:26;8.63;;;3.45;;
7460;SDS011;6757;52.258;12.840;2023-08-17T08:37:55;5.70;;;2.90;;
7460;SDS011;6757;52.258;12.840;2023-08-17T08:40:28;7.68;;;3.13;;
7460;SDS011;6757;52.258;12.840;2023-08-17T08:42:56;7.38;;;2.88;;
7460;SDS011;6757;52.258;12.840;2023-08-17T08:45:24;7.32;;;2.92;;
7460;SDS011;6757;52.258;12.840;2023-08-17T08:47:54;7.57;;;3.08;;
7460;SDS011;6757;52.258;12.840;2023-08-17T08:50:23;6.93;;;2.97;;
7460;SDS011;6757;52.258;12.840;2023-08-17T08:52:53;7.32;;;3.17;;
7460;SDS011;6757;52.258;12.840;2023-08-17T08:55:26;7.18;;;3.20;;
7460;SDS011;6757;52.258;12.840;2023-08-17T08:57:56;6.63;;;2.75;;
7460;SDS011;6757;52.258;12.840;2023-08-17T09:00:24;7.05;;;3.33;;
7460;SDS011;6757;52.258;12.840;2023-08-17T09:02:52;6.85;;;3.03;;
7460;SDS011;6757;52.258;12.840;2023-08-17T09:05:20;8.80;;;3.60;;
7460;SDS011;6757;52.258;12.840;2023-08-17T09:07:49;6.47;;;3.13;;
7460;SDS011;6757;52.258;12.840;2023-08-17T09:10:16;7.57;;;3.28;;
7460;SDS011;6757;52.258;12.840;2023-08-17T09:12:43;8.05;;;3.58;;
7460;SDS011;6757;52.258;12.840;2023-08-17T09:15:12;9.15;;;3.40;;
7460;SDS011;6757;52.258;12.840;2023-08-17T09:17:39;6.10;;;2.88;;
7460;SDS011;6757;52.258;12.840;2023-08-17T09:20:06;8.98;;;3.17;;
7460;SDS011;6757;52.258;12.840;2023-08-17T09:22:41;6.78;;;2.95;;
7460;SDS011;6757;52.258;12.840;2023-08-17T09:25:09;7.60;;;2.70;;
7460;SDS011;6757;52.258;12.840;2023-08-17T09:27:37;4.78;;;2.95;;
7460;SDS011;6757;52.258;12.840;2023-08-17T09:30:06;5.93;;;3.00;;
7460;SDS011;6757;52.258;12.840;2023-08-17T09:32:36;5.35;;;2.70;;
7460;SDS011;6757;52.258;12.840;2023-08-17T09:35:03;7.55;;;3.00;;
7460;SDS011;6757;52.258;12.840;2023-08-17T09:37:32;9.10;;;3.83;;
7460;SDS011;6757;52.258;12.840;2023-08-17T09:40:01;7.65;;;3.35;;
7460;SDS011;6757;52.258;12.840;2023-08-17T09:42:28;6.43;;;2.80;;
7460;SDS011;6757;52.258;12.840;2023-08-17T09:44:57;7.70;;;3.10;;
7460;SDS011;6757;52.258;12.840;2023-08-17T09:47:26;8.93;;;3.65;;
7460;SDS011;6757;52.258;12.840;2023-08-17T09:49:53;10.13;;;4.05;;
7460;SDS011;6757;52.258;12.840;2023-08-17T09:52:21;9.25;;;3.83;;
7460;SDS011;6757;52.258;12.840;2023-08-17T09:54:49;9.85;;;3.80;;
7460;SDS011;6757;52.258;12.840;2023-08-17T09:57:20;8.05;;;3.47;;
7460;SDS011;6757;52.258;12.840;2023-08-17T09:59:48;8.05;;;3.55;;
7460;SDS011;6757;52.258;12.840;2023-08-17T10:02:17;9.18;;;3.60;;
7460;SDS011;6757;52.258;12.840;2023-08-17T10:04:46;6.85;;;3.40;;
7460;SDS011;6757;52.258;12.840;2023-08-17T10:07:18;7.60;;;3.67;;
7460;SDS011;6757;52.258;12.840;2023-08-17T10:09:48;9.77;;;3.60;;
7460;SDS011;6757;52.258;12.840;2023-08-17T10:12:23;10.30;;;3.63;;
7460;SDS011;6757;52.258;12.840;2023-08-17T10:14:55;7.03;;;3.50;;
7460;SDS011;6757;52.258;12.840;2023-08-17T10:17:30;8.00;;;3.92;;
7460;SDS011;6757;52.258;12.840;2023-08-17T10:20:03;8.55;;;3.60;;
7460;SDS011;6757;52.258;12.840;2023-08-17T10:22:33;9.52;;;4.28;;
7460;SDS011;6757;52.258;12.840;2023-08-17T10:25:08;10.45;;;3.95;;
7460;SDS011;6757;52.258;12.840;2023-08-17T10:27:38;8.20;;;3.60;;
7460;SDS011;6757;52.258;12.840;2023-08-17T10:30:06;7.90;;;3.83;;
7460;SDS011;6757;52.258;12.840;2023-08-17T10:32:34;10.27;;;4.38;;
7460;SDS011;6757;52.258;12.840;2023-08-17T10:35:02;10.63;;;4.13;;
7460;SDS011;6757;52.258;12.840;2023-08-17T10:37:30;9.27;;;3.97;;
7460;SDS011;6757;52.258;12.840;2023-08-17T10:39:58;9.68;;;4.03;;
7460;SDS011;6757;52.258;12.840;2023-08-17T10:42:31;9.02;;;3.67;;
7460;SDS011;6757;52.258;12.840;2023-08-17T10:45:01;8.45;;;3.78;;
7460;SDS011;6757;52.258;12.840;2023-08-17T10:47:59;10.15;;;4.03;;
7460;SDS011;6757;52.258;12.840;2023-08-17T10:50:44;9.32;;;3.78;;
7460;SDS011;6757;52.258;12.840;2023-08-17T10:53:26;8.13;;;3.60;;
7460;SDS011;6757;52.258;12.840;2023-08-17T10:56:00;10.13;;;4.25;;
7460;SDS011;6757;52.258;12.840;2023-08-17T10:58:30;10.45;;;4.32;;
7460;SDS011;6757;52.258;12.840;2023-08-17T11:01:00;9.80;;;3.97;;
7460;SDS011;6757;52.258;12.840;2023-08-17T11:03:27;9.23;;;4.25;;
7460;SDS011;6757;52.258;12.840;2023-08-17T11:05:54;10.32;;;4.05;;
7460;SDS011;6757;52.258;12.840;2023-08-17T11:08:22;10.60;;;4.55;;
7460;SDS011;6757;52.258;12.840;2023-08-17T11:10:57;9.48;;;4.20;;
7460;SDS011;6757;52.258;12.840;2023-08-17T11:13:32;10.73;;;4.72;;
7460;SDS011;6757;52.258;12.840;2023-08-17T11:16:03;10.93;;;4.53;;
7460;SDS011;6757;52.258;12.840;2023-08-17T11:18:31;11.63;;;4.30;;
7460;SDS011;6757;52.258;12.840;2023-08-17T11:20:59;10.30;;;4.18;;
7460;SDS011;6757;52.258;12.840;2023-08-17T11:23:28;7.75;;;3.83;;
7460;SDS011;6757;52.258;12.840;2023-08-17T11:25:56;11.13;;;4.38;;
7460;SDS011;6757;52.258;12.840;2023-08-17T11:28:24;10.13;;;3.80;;
7460;SDS011;6757;52.258;12.840;2023-08-17T11:30:57;13.02;;;4.50;;
7460;SDS011;6757;52.258;12.840;2023-08-17T11:33:26;9.80;;;4.13;;
7460;SDS011;6757;52.258;12.840;2023-08-17T11:35:54;9.82;;;4.25;;
7460;SDS011;6757;52.258;12.840;2023-08-17T11:38:21;9.65;;;4.05;;
7460;SDS011;6757;52.258;12.840;2023-08-17T11:40:48;7.65;;;3.65;;
7460;SDS011;6757;52.258;12.840;2023-08-17T11:43:15;10.98;;;4.40;;
7460;SDS011;6757;52.258;12.840;2023-08-17T11:45:43;11.45;;;4.38;;
7460;SDS011;6757;52.258;12.840;2023-08-17T11:48:11;10.75;;;4.72;;
7460;SDS011;6757;52.258;12.840;2023-08-17T11:50:39;11.45;;;5.43;;
7460;SDS011;6757;52.258;12.840;2023-08-17T11:53:06;12.32;;;4.88;;
7460;SDS011;6757;52.258;12.840;2023-08-17T11:55:33;10.77;;;5.03;;
7460;SDS011;6757;52.258;12.840;2023-08-17T11:58:01;10.60;;;4.32;;
7460;SDS011;6757;52.258;12.840;2023-08-17T12:00:28;12.13;;;5.07;;
7460;SDS011;6757;52.258;12.840;2023-08-17T12:03:02;12.07;;;5.00;;
7460;SDS011;6757;52.258;12.840;2023-08-17T12:05:30;10.50;;;4.50;;
7460;SDS011;6757;52.258;12.840;2023-08-17T12:08:00;11.15;;;4.78;;
7460;SDS011;6757;52.258;12.840;2023-08-17T12:10:27;13.75;;;5.15;;
7460;SDS011;6757;52.258;12.840;2023-08-17T12:12:57;10.98;;;5.15;;
7460;SDS011;6757;52.258;12.840;2023-08-17T12:15:29;11.32;;;4.72;;
7460;SDS011;6757;52.258;12.840;2023-08-17T12:17:58;11.05;;;4.63;;
7460;SDS011;6757;52.258;12.840;2023-08-17T12:20:27;11.48;;;5.38;;
7460;SDS011;6757;52.258;12.840;2023-08-17T12:22:56;11.43;;;4.63;;
7460;SDS011;6757;52.258;12.840;2023-08-17T12:25:26;9.85;;;4.35;;
7460;SDS011;6757;52.258;12.840;2023-08-17T12:27:53;9.18;;;4.32;;
7460;SDS011;6757;52.258;12.840;2023-08-17T12:30:24;11.10;;;5.10;;
7460;SDS011;6757;52.258;12.840;2023-08-17T12:32:52;13.02;;;4.80;;
7460;SDS011;6757;52.258;12.840;2023-08-17T12:35:19;10.50;;;4.22;;
7460;SDS011;6757;52.258;12.840;2023-08-17T12:37:48;10.35;;;4.32;;
7460;SDS011;6757;52.258;12.840;2023-08-17T12:40:16;10.05;;;4.43;;
7460;SDS011;6757;52.258;12.840;2023-08-17T12:42:44;9.13;;;4.25;;
7460;SDS011;6757;52.258;12.840;2023-08-17T12:45:11;10.13;;;4.82;;
7460;SDS011;6757;52.258;12.840;2023-08-17T12:47:38;10.73;;;4.63;;
7460;SDS011;6757;52.258;12.840;2023-08-17T12:50:05;11.68;;;5.18;;
7460;SDS011;6757;52.258;12.840;2023-08-17T12:52:33;10.02;;;4.53;;
7460;SDS011;6757;52.258;12.840;2023-08-17T12:55:00;9.38;;;4.20;;
7460;SDS011;6757;52.258;12.840;2023-08-17T12:57:27;9.93;;;4.22;;
7460;SDS011;6757;52.258;12.840;2023-08-17T12:59:56;9.98;;;4.30;;
7460;SDS011;6757;52.258;12.840;2023-08-17T13:02:23;8.15;;;4.10;;
7460;SDS011;6757;52.258;12.840;2023-08-17T13:04:50;9.40;;;4.20;;
7460;SDS011;6757;52.258;12.840;2023-08-17T13:07:16;10.60;;;4.90;;
7460;SDS011;6757;52.258;12.840;2023-08-17T13:09:43;10.30;;;4.35;;
7460;SDS011;6757;52.258;12.840;2023-08-17T13:12:11;10.20;;;4.70;;
7460;SDS011;6757;52.258;12.840;2023-08-17T13:14:38;10.02;;;4.63;;
7460;SDS011;6757;52.258;12.840;2023-08-17T13:17:06;14.75;;;4.38;;
7460;SDS011;6757;52.258;12.840;2023-08-17T13:19:33;9.43;;;4.15;;
7460;SDS011;6757;52.258;12.840;2023-08-17T13:22:00;9.55;;;4.10;;
7460;SDS011;6757;52.258;12.840;2023-08-17T13:24:29;8.00;;;3.85;;
7460;SDS011;6757;52.258;12.840;2023-08-17T13:26:56;10.27;;;4.63;;
7460;SDS011;6757;52.258;12.840;2023-08-17T13:29:23;8.75;;;3.63;;
7460;SDS011;6757;52.258;12.840;2023-08-17T13:31:50;10.65;;;4.38;;
7460;SDS011;6757;52.258;12.840;2023-08-17T13:34:18;10.27;;;4.18;;
7460;SDS011;6757;52.258;12.840;2023-08-17T13:36:45;7.68;;;3.67;;
7460;SDS011;6757;52.258;12.840;2023-08-17T13:39:12;8.65;;;4.57;;
7460;SDS011;6757;52.258;12.840;2023-08-17T13:41:40;9.00;;;3.88;;
7460;SDS011;6757;52.258;12.840;2023-08-17T13:44:07;10.30;;;4.28;;
7460;SDS011;6757;52.258;12.840;2023-08-17T13:46:34;10.38;;;4.25;;
7460;SDS011;6757;52.258;12.840;2023-08-17T13:49:02;9.18;;;3.95;;
7460;SDS011;6757;52.258;12.840;2023-08-17T13:51:31;11.63;;;4.72;;
7460;SDS011;6757;52.258;12.840;2023-08-17T13:53:58;10.40;;;4.30;;
7460;SDS011;6757;52.258;12.840;2023-08-17T13:56:25;9.05;;;3.97;;
7460;SDS011;6757;52.258;12.840;2023-08-17T13:58:52;10.30;;;4.53;;
7460;SDS011;6757;52.258;12.840;2023-08-17T14:01:19;9.35;;;3.90;;
7460;SDS011;6757;52.258;12.840;2023-08-17T14:03:46;8.82;;;4.20;;
7460;SDS011;6757;52.258;12.840;2023-08-17T14:06:13;9.25;;;4.28;;
7460;SDS011;6757;52.258;12.840;2023-08-17T14:08:42;10.70;;;4.30;;
7460;SDS011;6757;52.258;12.840;2023-08-17T14:11:09;9.10;;;4.28;;
7460;SDS011;6757;52.258;12.840;2023-08-17T14:13:36;10.57;;;4.40;;
7460;SDS011;6757;52.258;12.840;2023-08-17T14:16:04;9.80;;;4.25;;
7460;SDS011;6757;52.258;12.840;2023-08-17T14:18:31;10.15;;;4.70;;
7460;SDS011;6757;52.258;12.840;2023-08-17T14:20:58;10.85;;;4.47;;
7460;SDS011;6757;52.258;12.840;2023-08-17T14:23:25;9.82;;;4.30;;
7460;SDS011;6757;52.258;12.840;2023-08-17T14:25:54;9.43;;;4.10;;
7460;SDS011;6757;52.258;12.840;2023-08-17T14:28:21;11.50;;;4.38;;
7460;SDS011;6757;52.258;12.840;2023-08-17T14:30:48;8.43;;;3.90;;
7460;SDS011;6757;52.258;12.840;2023-08-17T14:33:15;7.45;;;3.70;;
7460;SDS011;6757;52.258;12.840;2023-08-17T14:35:42;8.70;;;3.95;;
7460;SDS011;6757;52.258;12.840;2023-08-17T14:38:09;7.78;;;3.40;;
7460;SDS011;6757;52.258;12.840;2023-08-17T14:40:38;7.72;;;3.72;;
7460;SDS011;6757;52.258;12.840;2023-08-17T14:43:10;10.23;;;4.18;;
7460;SDS011;6757;52.258;12.840;2023-08-17T14:45:38;8.70;;;3.45;;
7460;SDS011;6757;52.258;12.840;2023-08-17T14:48:06;9.52;;;4.63;;
7460;SDS011;6757;52.258;12.840;2023-08-17T14:50:33;10.27;;;4.45;;
7460;SDS011;6757;52.258;12.840;2023-08-17T14:53:00;8.93;;;4.03;;
7460;SDS011;6757;52.258;12.840;2023-08-17T14:55:28;10.18;;;4.13;;
7460;SDS011;6757;52.258;12.840;2023-08-17T14:57:55;9.57;;;4.05;;
7460;SDS011;6757;52.258;12.840;2023-08-17T15:00:23;11.48;;;4.95;;
7460;SDS011;6757;52.258;12.840;2023-08-17T15:02:51;8.93;;;4.07;;
7460;SDS011;6757;52.258;12.840;2023-08-17T15:05:19;9.15;;;4.32;;